createdAt,value
2019-04-11T00:01:36.075Z,9.20
2019-04-11T00:03:55.714Z,9.20
2019-04-11T00:06:25.639Z,9.20
2019-04-11T00:08:54.840Z,9.10
2019-04-11T00:11:24.191Z,9.10
2019-04-11T00:13:53.644Z,9.10
2019-04-11T00:16:23.478Z,9.00
2019-04-11T00:18:52.760Z,9.10
2019-04-11T00:21:22.465Z,9.10
2019-04-11T00:23:51.835Z,9.00
2019-04-11T00:26:20.869Z,9.00
2019-04-11T00:28:50.163Z,9.00
2019-04-11T00:31:19.357Z,9.00
2019-04-11T00:33:48.772Z,8.90
2019-04-11T00:36:17.993Z,9.00
2019-04-11T00:38:47.845Z,9.00
2019-04-11T00:41:17.571Z,8.80
2019-04-11T00:43:46.925Z,8.90
2019-04-11T00:46:16.213Z,8.90
2019-04-11T00:48:46.105Z,8.80
2019-04-11T00:51:17.115Z,8.70
2019-04-11T00:53:46.550Z,8.60
2019-04-11T00:56:15.856Z,8.50
2019-04-11T00:58:45.697Z,8.60
2019-04-11T01:01:15.644Z,8.50
2019-04-11T01:03:45.416Z,8.50
2019-04-11T01:06:14.790Z,8.50
2019-04-11T01:08:44.112Z,8.40
2019-04-11T01:11:14.013Z,8.40
2019-04-11T01:13:49.658Z,8.40
2019-04-11T01:16:18.318Z,8.40
2019-04-11T01:18:47.423Z,8.40
2019-04-11T01:21:16.553Z,8.30
2019-04-11T01:23:45.681Z,8.40
2019-04-11T01:26:14.984Z,8.30
2019-04-11T01:28:44.943Z,8.30
2019-04-11T01:31:15.652Z,8.30
2019-04-11T01:33:44.776Z,8.20
2019-04-11T01:36:15.048Z,8.20
2019-04-11T01:38:46.378Z,8.20
2019-04-11T01:41:15.598Z,8.10
2019-04-11T01:43:53.453Z,8.10
2019-04-11T01:46:16.094Z,8.10
2019-04-11T01:48:50.105Z,8.10
2019-04-11T01:51:19.418Z,8.10
2019-04-11T01:53:48.912Z,8.10
2019-04-11T01:56:18.116Z,8.10
2019-04-11T01:58:47.277Z,8.00
2019-04-11T02:01:18.835Z,8.10
2019-04-11T02:03:49.834Z,8.00
2019-04-11T02:06:19.162Z,8.00
2019-04-11T02:08:49.313Z,7.90
2019-04-11T02:11:18.622Z,7.80
2019-04-11T02:13:48.189Z,7.80
2019-04-11T02:16:17.407Z,7.90
2019-04-11T02:18:47.593Z,7.70
2019-04-11T02:21:17.815Z,7.80
2019-04-11T02:23:55.275Z,7.70
2019-04-11T02:26:31.883Z,7.80
2019-04-11T02:29:01.385Z,7.80
2019-04-11T02:31:30.683Z,7.70
2019-04-11T02:34:01.731Z,7.70
2019-04-11T02:36:32.176Z,7.70
2019-04-11T02:39:05.836Z,7.70
2019-04-11T02:41:35.124Z,7.70
2019-04-11T02:44:03.586Z,7.70
2019-04-11T02:46:42.554Z,7.60
2019-04-11T02:49:05.870Z,7.60
2019-04-11T02:51:36.613Z,7.50
2019-04-11T02:54:06.894Z,7.60
2019-04-11T02:56:36.546Z,7.50
2019-04-11T02:59:05.736Z,7.50
2019-04-11T03:01:36.249Z,7.50
2019-04-11T03:04:07.277Z,7.50
2019-04-11T03:06:36.933Z,7.50
2019-04-11T03:09:07.197Z,7.40
2019-04-11T03:11:38.490Z,7.50
2019-04-11T03:14:08.251Z,7.40
2019-04-11T03:16:53.665Z,7.40
2019-04-11T03:19:24.063Z,7.30
2019-04-11T03:21:43.725Z,7.40
2019-04-11T03:24:11.156Z,7.40
2019-04-11T03:26:41.258Z,7.30
2019-04-11T03:29:12.706Z,7.30
2019-04-11T03:32:17.649Z,7.30
2019-04-11T03:34:59.339Z,7.20
2019-04-11T03:37:20.292Z,7.20
2019-04-11T03:39:32.380Z,7.20
2019-04-11T03:41:59.718Z,7.10
2019-04-11T03:44:23.545Z,7.10
2019-04-11T03:47:01.273Z,7.10
2019-04-11T03:49:28.214Z,7.00
2019-04-11T03:51:48.191Z,7.00
2019-04-11T03:54:18.016Z,7.00
2019-04-11T03:56:49.091Z,7.00
2019-04-11T03:59:19.530Z,7.00
2019-04-11T04:01:50.390Z,7.00
2019-04-11T04:04:21.746Z,7.00
2019-04-11T04:06:50.433Z,7.00
2019-04-11T04:09:20.846Z,6.90
2019-04-11T04:11:51.717Z,6.90
2019-04-11T04:14:32.587Z,7.00
2019-04-11T04:17:12.480Z,6.90
2019-04-11T04:19:54.096Z,6.90
2019-04-11T04:22:39.801Z,6.80
2019-04-11T04:25:10.333Z,6.80
2019-04-11T04:27:41.089Z,6.70
2019-04-11T04:30:11.381Z,6.70
2019-04-11T04:32:42.909Z,6.70
2019-04-11T04:35:16.764Z,6.70
2019-04-11T04:37:43.862Z,6.70
2019-04-11T04:40:31.589Z,6.70
2019-04-11T04:42:49.888Z,6.70
2019-04-11T04:45:16.349Z,6.60
2019-04-11T04:47:53.722Z,6.60
2019-04-11T04:50:18.081Z,6.60
2019-04-11T04:52:48.960Z,6.60
2019-04-11T04:55:19.448Z,6.50
2019-04-11T04:57:48.933Z,6.50
2019-04-11T05:00:18.828Z,6.40
2019-04-11T05:02:48.304Z,6.50
2019-04-11T05:05:17.800Z,6.40
2019-04-11T05:07:47.677Z,6.40
2019-04-11T05:10:16.914Z,6.50
2019-04-11T05:12:46.198Z,6.70
2019-04-11T05:15:16.643Z,6.40
2019-04-11T05:17:46.287Z,6.50
2019-04-11T05:20:16.289Z,6.50
2019-04-11T05:22:47.157Z,6.40
2019-04-11T05:25:16.442Z,6.50
2019-04-11T05:27:45.993Z,6.50
2019-04-11T05:30:15.168Z,6.50
2019-04-11T05:32:45.192Z,6.50
2019-04-11T05:35:14.536Z,6.60
2019-04-11T05:37:43.739Z,6.60
2019-04-11T05:40:12.825Z,6.50
2019-04-11T05:42:42.209Z,6.50
2019-04-11T05:45:15.893Z,6.60
2019-04-11T05:47:42.215Z,6.60
2019-04-11T05:50:13.783Z,6.60
2019-04-11T05:52:44.167Z,6.70
2019-04-11T05:55:14.009Z,6.70
2019-04-11T05:57:44.898Z,6.70
2019-04-11T06:00:19.392Z,6.70
2019-04-11T06:02:51.164Z,6.70
2019-04-11T06:05:40.835Z,6.80
2019-04-11T06:08:12.558Z,6.80
2019-04-11T06:10:48.191Z,6.80
2019-04-11T06:13:19.090Z,6.80
2019-04-11T06:15:49.780Z,6.80
2019-04-11T06:18:32.304Z,6.90
2019-04-11T06:21:11.749Z,6.90
2019-04-11T06:23:45.675Z,7.00
2019-04-11T06:26:16.657Z,7.00
2019-04-11T06:28:47.137Z,7.10
2019-04-11T06:31:36.823Z,7.10
2019-04-11T06:34:07.588Z,7.10
2019-04-11T06:36:39.126Z,7.10
2019-04-11T06:39:11.388Z,7.20
2019-04-11T06:41:43.033Z,7.30
2019-04-11T06:44:16.579Z,7.40
2019-04-11T06:47:04.263Z,7.40
2019-04-11T06:49:45.157Z,7.40
2019-04-11T06:52:15.367Z,7.50
2019-04-11T06:55:02.741Z,7.60
2019-04-11T06:57:34.156Z,7.60
2019-04-11T07:00:05.224Z,7.70
2019-04-11T07:02:36.912Z,7.70
2019-04-11T07:05:09.116Z,7.80
2019-04-11T07:07:40.849Z,7.90
2019-04-11T07:10:11.737Z,8.00
2019-04-11T07:12:49.383Z,8.00
2019-04-11T07:15:23.270Z,8.10
2019-04-11T07:18:11.901Z,8.20
2019-04-11T07:20:49.856Z,8.50
2019-04-11T07:23:38.433Z,8.30
2019-04-11T07:26:10.182Z,8.40
2019-04-11T07:28:41.665Z,8.40
2019-04-11T07:31:30.062Z,8.50
2019-04-11T07:34:17.383Z,8.60
2019-04-11T07:37:06.879Z,8.70
2019-04-11T07:39:42.640Z,8.80
2019-04-11T07:42:13.750Z,8.90
2019-04-11T07:45:00.868Z,8.90
2019-04-11T07:47:35.180Z,9.00
2019-04-11T07:50:07.847Z,9.10
2019-04-11T07:52:44.831Z,9.20
2019-04-11T07:55:14.096Z,9.20
2019-04-11T07:57:45.030Z,9.30
2019-04-11T08:00:37.861Z,9.50
2019-04-11T08:02:57.456Z,9.70
2019-04-11T08:05:38.744Z,10.00
2019-04-11T08:08:25.710Z,10.60
2019-04-11T08:11:00.293Z,11.70
2019-04-11T08:13:31.313Z,12.00
2019-04-11T08:16:10.481Z,12.60
2019-04-11T08:18:45.360Z,13.30
2019-04-11T08:21:35.341Z,13.90
2019-04-11T08:24:07.881Z,14.30
2019-04-11T08:26:55.450Z,14.90
2019-04-11T08:29:24.604Z,15.40
2019-04-11T08:32:11.767Z,15.90
2019-04-11T08:34:59.660Z,16.40
2019-04-11T08:37:47.582Z,16.90
2019-04-11T08:40:18.173Z,17.30
2019-04-11T08:43:02.519Z,17.70
2019-04-11T08:45:33.912Z,18.10
2019-04-11T08:48:10.859Z,18.50
2019-04-11T08:50:44.937Z,18.60
2019-04-11T08:53:18.599Z,18.70
2019-04-11T08:56:02.597Z,19.00
2019-04-11T08:58:40.380Z,19.30
2019-04-11T09:01:14.028Z,19.50
2019-04-11T09:04:02.117Z,19.60
2019-04-11T09:06:28.680Z,19.60
2019-04-11T09:09:09.137Z,19.70
2019-04-11T09:11:41.114Z,19.60
2019-04-11T09:14:28.330Z,19.70
2019-04-11T09:17:01.909Z,20.60
2019-04-11T09:19:38.994Z,19.80
2019-04-11T09:22:13.082Z,20.00
2019-04-11T09:24:43.845Z,20.00
2019-04-11T09:27:31.102Z,20.20
2019-04-11T09:30:19.048Z,20.30
2019-04-11T09:32:52.854Z,20.40
2019-04-11T09:35:26.939Z,20.60
2019-04-11T09:37:57.972Z,20.80
2019-04-11T09:40:44.784Z,21.00
2019-04-11T09:43:15.789Z,21.20
2019-04-11T09:45:54.176Z,21.30
2019-04-11T09:48:34.644Z,21.30
2019-04-11T09:51:21.533Z,21.40
2019-04-11T09:53:52.884Z,21.30
2019-04-11T09:56:23.836Z,21.20
2019-04-11T09:58:58.274Z,21.20
2019-04-11T10:01:33.009Z,21.10
2019-04-11T10:04:02.297Z,21.10
2019-04-11T10:06:41.740Z,21.00
2019-04-11T10:09:11.485Z,20.80
2019-04-11T10:11:59.011Z,20.50
2019-04-11T10:14:29.448Z,20.00
2019-04-11T10:17:16.918Z,19.40
2019-04-11T10:19:46.420Z,19.00
2019-04-11T10:22:32.330Z,18.80
2019-04-11T10:25:03.297Z,18.80
2019-04-11T10:27:49.481Z,19.00
2019-04-11T10:30:36.285Z,19.10
2019-04-11T10:33:10.783Z,18.90
2019-04-11T10:35:58.827Z,18.70
2019-04-11T10:38:28.731Z,18.30
2019-04-11T10:41:00.764Z,18.10
2019-04-11T10:43:34.517Z,17.90
2019-04-11T10:46:21.256Z,17.70
2019-04-11T10:48:55.060Z,17.40
2019-04-11T10:51:26.454Z,17.30
2019-04-11T10:53:57.537Z,17.20
2019-04-11T10:56:44.852Z,17.30
2019-04-11T10:59:15.444Z,17.30
2019-04-11T11:02:04.640Z,17.30
2019-04-11T11:04:36.648Z,17.20
2019-04-11T11:07:09.692Z,17.20
2019-04-11T11:09:39.850Z,17.30
2019-04-11T11:12:27.373Z,17.40
2019-04-11T11:15:04.025Z,17.30
2019-04-11T11:18:20.717Z,17.20
2019-04-11T11:20:39.953Z,16.90
2019-04-11T11:23:23.300Z,16.60
2019-04-11T11:26:03.201Z,16.40
2019-04-11T11:28:34.336Z,16.10
2019-04-11T11:31:05.481Z,15.90
2019-04-11T11:33:35.753Z,15.70
2019-04-11T11:36:23.545Z,15.60
2019-04-11T11:38:54.428Z,15.60
2019-04-11T11:41:41.342Z,15.70
2019-04-11T11:44:11.762Z,16.00
2019-04-11T11:47:00.809Z,16.40
2019-04-11T11:49:44.958Z,17.10
2019-04-11T11:52:05.128Z,17.50
2019-04-11T11:54:39.764Z,18.00
2019-04-11T11:57:10.832Z,18.10
2019-04-11T11:59:44.891Z,18.30
2019-04-11T12:02:17.347Z,18.70
2019-04-11T12:04:48.443Z,18.80
2019-04-11T12:07:22.992Z,19.10
2019-04-11T12:10:11.262Z,19.20
2019-04-11T12:13:03.283Z,19.00
2019-04-11T12:15:49.129Z,18.90
2019-04-11T12:18:23.081Z,18.90
2019-04-11T12:21:03.209Z,19.00
2019-04-11T12:23:58.098Z,19.10
2019-04-11T12:26:22.102Z,19.20
2019-04-11T12:28:54.091Z,19.00
2019-04-11T12:31:36.426Z,18.80
2019-04-11T12:34:18.732Z,18.40
2019-04-11T12:36:51.008Z,18.30
2019-04-11T12:39:35.640Z,18.40
2019-04-11T12:42:12.514Z,18.60
2019-04-11T12:45:00.201Z,19.40
2019-04-11T12:47:30.930Z,19.10
2019-04-11T12:50:17.919Z,19.40
2019-04-11T12:52:48.652Z,19.70
2019-04-11T12:55:19.443Z,19.80
2019-04-11T12:58:06.292Z,19.70
2019-04-11T13:00:42.927Z,19.60
2019-04-11T13:03:32.244Z,19.40
2019-04-11T13:06:05.601Z,19.10
2019-04-11T13:08:39.412Z,18.90
2019-04-11T13:11:10.190Z,18.60
2019-04-11T13:13:40.919Z,18.60
2019-04-11T13:16:12.841Z,18.60
2019-04-11T13:18:46.712Z,18.60
2019-04-11T13:21:17.523Z,18.90
2019-04-11T13:23:57.388Z,19.10
2019-04-11T13:26:44.306Z,19.30
2019-04-11T13:29:15.092Z,19.40
2019-04-11T13:31:54.923Z,19.40
2019-04-11T13:34:26.103Z,19.40
2019-04-11T13:37:13.296Z,19.40
2019-04-11T13:39:46.562Z,19.30
2019-04-11T13:42:22.583Z,19.20
2019-04-11T13:44:51.760Z,18.90
2019-04-11T13:47:34.809Z,18.80
2019-04-11T13:50:16.095Z,18.70
2019-04-11T13:52:39.545Z,18.70
2019-04-11T13:55:10.412Z,18.40
2019-04-11T13:57:56.272Z,18.40
2019-04-11T14:00:36.150Z,18.10
2019-04-11T14:03:23.201Z,18.20
2019-04-11T14:05:52.336Z,18.20
2019-04-11T14:08:31.967Z,18.30
2019-04-11T14:11:08.243Z,18.50
2019-04-11T14:13:42.164Z,18.50
2019-04-11T14:16:15.678Z,18.40
2019-04-11T14:19:03.330Z,18.20
2019-04-11T14:21:33.314Z,18.00
2019-04-11T14:24:20.444Z,17.90
2019-04-11T14:27:02.941Z,17.80
2019-04-11T14:29:45.677Z,17.80
2019-04-11T14:32:16.484Z,17.60
2019-04-11T14:34:50.125Z,17.30
2019-04-11T14:37:23.303Z,16.80
2019-04-11T14:40:02.864Z,16.60
2019-04-11T14:42:49.868Z,16.20
2019-04-11T14:45:24.272Z,16.00
2019-04-11T14:48:11.688Z,15.80
2019-04-11T14:50:44.990Z,15.80
2019-04-11T14:53:33.165Z,15.50
2019-04-11T14:56:12.761Z,15.30
2019-04-11T14:58:46.472Z,15.40
2019-04-11T15:01:17.299Z,15.40
2019-04-11T15:03:54.241Z,15.40
2019-04-11T15:06:28.088Z,15.40
2019-04-11T15:08:58.872Z,15.30
2019-04-11T15:11:47.115Z,15.30
2019-04-11T15:14:33.320Z,15.10
2019-04-11T15:17:16.451Z,15.00
2019-04-11T15:19:49.908Z,14.80
2019-04-11T15:22:20.564Z,14.70
2019-04-11T15:25:09.434Z,14.60
2019-04-11T15:27:43.196Z,14.60
2019-04-11T15:30:17.344Z,14.60
2019-04-11T15:32:47.207Z,14.60
2019-04-11T15:35:16.427Z,14.70
2019-04-11T15:38:03.647Z,14.80
2019-04-11T15:40:32.892Z,14.80
2019-04-11T15:43:19.799Z,14.80
2019-04-11T15:45:50.510Z,14.80
2019-04-11T15:48:37.180Z,14.90
2019-04-11T15:51:19.988Z,14.80
2019-04-11T15:53:50.910Z,15.00
2019-04-11T15:56:40.899Z,15.00
2019-04-11T15:59:12.923Z,15.00
2019-04-11T16:02:00.904Z,14.90
2019-04-11T16:04:30.679Z,14.90
2019-04-11T16:07:13.700Z,14.70
2019-04-11T16:09:44.704Z,14.60
2019-04-11T16:12:31.801Z,14.40
2019-04-11T16:15:11.474Z,14.60
2019-04-11T16:17:58.444Z,14.30
2019-04-11T16:20:28.048Z,14.10
2019-04-11T16:22:59.881Z,14.30
2019-04-11T16:25:29.796Z,14.30
2019-04-11T16:28:16.536Z,14.30
2019-04-11T16:30:47.328Z,14.20
2019-04-11T16:33:34.536Z,14.20
2019-04-11T16:36:20.180Z,14.40
2019-04-11T16:38:54.003Z,14.20
2019-04-11T16:41:41.429Z,14.10
2019-04-11T16:44:25.141Z,14.00
2019-04-11T16:47:12.589Z,13.90
2019-04-11T16:49:42.310Z,13.80
2019-04-11T16:52:11.502Z,13.80
2019-04-11T16:54:40.855Z,13.70
2019-04-11T16:57:13.529Z,13.70
2019-04-11T16:59:40.892Z,13.80
2019-04-11T17:02:10.033Z,13.70
2019-04-11T17:04:39.390Z,13.70
2019-04-11T17:07:16.133Z,13.60
2019-04-11T17:09:49.729Z,13.60
2019-04-11T17:12:19.035Z,13.50
2019-04-11T17:14:48.049Z,13.40
2019-04-11T17:17:17.372Z,13.30
2019-04-11T17:19:46.745Z,13.30
2019-04-11T17:22:16.827Z,13.20
2019-04-11T17:24:48.093Z,13.20
2019-04-11T17:27:17.348Z,13.10
2019-04-11T17:29:46.537Z,13.10
2019-04-11T17:32:15.780Z,13.10
2019-04-11T17:34:44.919Z,13.00
2019-04-11T17:37:14.053Z,13.00
2019-04-11T17:39:43.116Z,13.00
2019-04-11T17:42:13.352Z,13.00
2019-04-11T17:44:43.169Z,12.90
2019-04-11T17:47:12.294Z,12.90
2019-04-11T17:49:41.677Z,12.90
2019-04-11T17:52:10.929Z,12.80
2019-04-11T17:54:40.503Z,12.80
2019-04-11T17:57:10.102Z,12.60
2019-04-11T17:59:39.478Z,12.50
2019-04-11T18:02:11.141Z,12.50
2019-04-11T18:04:43.698Z,12.40
2019-04-11T18:07:11.037Z,12.40
2019-04-11T18:09:40.341Z,12.30
2019-04-11T18:12:09.596Z,12.10
2019-04-11T18:14:38.836Z,12.10
2019-04-11T18:17:08.943Z,12.00
2019-04-11T18:19:38.139Z,12.00
2019-04-11T18:22:08.496Z,11.90
2019-04-11T18:24:38.406Z,11.90
2019-04-11T18:27:08.650Z,11.70
2019-04-11T18:29:38.566Z,11.80
2019-04-11T18:32:09.019Z,11.70
2019-04-11T18:34:38.359Z,11.50
2019-04-11T18:37:07.581Z,11.50
2019-04-11T18:39:36.732Z,11.50
2019-04-11T18:42:06.411Z,11.50
2019-04-11T18:44:35.716Z,11.50
2019-04-11T18:47:04.893Z,11.40
2019-04-11T18:49:34.170Z,11.30
2019-04-11T18:52:03.325Z,11.30
2019-04-11T18:54:32.817Z,11.20
2019-04-11T18:57:02.070Z,11.20
2019-04-11T18:59:33.716Z,11.20
2019-04-11T19:02:02.374Z,11.20
2019-04-11T19:04:32.849Z,11.10
2019-04-11T19:07:04.754Z,11.10
2019-04-11T19:09:33.088Z,11.10
2019-04-11T19:12:02.840Z,11.10
2019-04-11T19:14:32.135Z,11.00
2019-04-11T19:17:01.316Z,11.10
2019-04-11T19:19:30.608Z,11.00
2019-04-11T19:21:59.867Z,10.90
2019-04-11T19:24:35.367Z,10.90
2019-04-11T19:27:00.571Z,10.80
2019-04-11T19:29:29.890Z,10.80
2019-04-11T19:31:59.118Z,10.80
2019-04-11T19:34:28.809Z,10.70
2019-04-11T19:36:58.025Z,10.80
2019-04-11T19:39:27.671Z,10.70
2019-04-11T19:41:56.925Z,10.70
2019-04-11T19:44:26.290Z,10.60
2019-04-11T19:46:55.651Z,10.60
2019-04-11T19:49:28.791Z,10.70
2019-04-11T19:52:00.638Z,10.60
2019-04-11T19:54:28.443Z,10.60
2019-04-11T19:57:03.188Z,10.50
2019-04-11T19:59:33.493Z,10.50
2019-04-11T20:02:03.031Z,10.40
2019-04-11T20:04:32.521Z,10.40
2019-04-11T20:07:01.743Z,10.50
2019-04-11T20:09:31.575Z,10.40
2019-04-11T20:12:01.053Z,10.40
2019-04-11T20:14:34.063Z,10.40
2019-04-11T20:17:02.265Z,10.30
2019-04-11T20:19:31.465Z,10.30
2019-04-11T20:22:00.652Z,10.20
2019-04-11T20:24:30.122Z,10.20
2019-04-11T20:26:59.572Z,10.20
2019-04-11T20:29:29.410Z,10.20
2019-04-11T20:31:58.700Z,10.10
2019-04-11T20:34:28.268Z,10.00
2019-04-11T20:36:58.644Z,10.00
2019-04-11T20:39:27.895Z,10.00
2019-04-11T20:41:57.465Z,10.00
2019-04-11T20:44:28.086Z,10.00
2019-04-11T20:47:00.100Z,10.00
2019-04-11T20:49:28.289Z,9.90
2019-04-11T20:51:57.557Z,10.00
2019-04-11T20:54:26.858Z,9.90
2019-04-11T20:56:56.041Z,9.90
2019-04-11T20:59:34.043Z,9.90
2019-04-11T21:01:56.569Z,9.30
2019-04-11T21:04:26.273Z,9.90
2019-04-11T21:06:55.576Z,9.90
2019-04-11T21:09:24.745Z,9.90
2019-04-11T21:11:53.968Z,9.80
2019-04-11T21:14:23.215Z,9.80
2019-04-11T21:16:52.534Z,9.80
2019-04-11T21:19:23.262Z,9.70
2019-04-11T21:21:53.280Z,9.70
2019-04-11T21:24:23.368Z,9.70
2019-04-11T21:26:52.563Z,9.70
2019-04-11T21:29:21.872Z,9.70
2019-04-11T21:31:51.309Z,9.70
2019-04-11T21:34:20.649Z,9.60
2019-04-11T21:36:49.840Z,9.60
2019-04-11T21:39:19.135Z,9.60
2019-04-11T21:41:48.460Z,9.60
2019-04-11T21:44:17.628Z,9.60
2019-04-11T21:46:49.196Z,9.60
2019-04-11T21:49:17.642Z,9.50
2019-04-11T21:51:46.655Z,9.50
2019-04-11T21:54:15.778Z,9.50
2019-04-11T21:56:49.210Z,9.40
2019-04-11T21:59:20.131Z,9.40
2019-04-11T22:01:46.861Z,9.30
2019-04-11T22:04:15.972Z,9.30
2019-04-11T22:06:45.228Z,9.30
2019-04-11T22:09:14.305Z,9.30
2019-04-11T22:11:43.506Z,9.20
2019-04-11T22:14:12.689Z,9.30
2019-04-11T22:16:44.491Z,9.20
2019-04-11T22:19:14.269Z,9.20
2019-04-11T22:21:45.310Z,9.20
2019-04-11T22:24:14.284Z,9.20
2019-04-11T22:26:43.525Z,9.20
2019-04-11T22:29:12.815Z,9.20
2019-04-11T22:31:42.179Z,9.20
2019-04-11T22:34:12.833Z,9.30
2019-04-11T22:36:42.209Z,9.20
2019-04-11T22:39:11.500Z,9.20
2019-04-11T22:41:40.776Z,9.20
2019-04-11T22:44:09.784Z,9.30
2019-04-11T22:46:38.909Z,9.30
2019-04-11T22:49:08.822Z,9.30
2019-04-11T22:51:42.650Z,9.30
2019-04-11T22:54:13.015Z,9.30
2019-04-11T22:56:41.900Z,9.40
2019-04-11T22:59:13.617Z,9.30
2019-04-11T23:01:42.159Z,9.30
2019-04-11T23:04:11.417Z,9.40
2019-04-11T23:06:40.583Z,9.30
2019-04-11T23:09:09.694Z,9.30
2019-04-11T23:11:38.943Z,9.40
2019-04-11T23:14:08.144Z,9.40
2019-04-11T23:16:37.515Z,9.50
2019-04-11T23:19:06.660Z,9.50
2019-04-11T23:24:11.855Z,9.50
2019-04-11T23:26:35.504Z,9.50
2019-04-11T23:29:04.636Z,9.50
2019-04-11T23:31:33.945Z,9.40
2019-04-11T23:34:03.073Z,9.40
2019-04-11T23:36:32.442Z,9.40
2019-04-11T23:39:01.668Z,9.40
2019-04-11T23:41:31.051Z,9.40
2019-04-11T23:44:00.124Z,9.70
2019-04-11T23:46:29.176Z,9.40
2019-04-11T23:48:58.454Z,9.30
2019-04-11T23:51:27.756Z,9.30
2019-04-11T23:53:59.117Z,9.30
2019-04-11T23:56:28.102Z,9.30
2019-04-11T23:59:01.618Z,9.30
